Tiempo atmosférico en la estación meteorológica de Cáceres, Cáceres (405 m.)



Fecha
DESCASC
Temp. máxima en grados centígrados (hora)
DESCASC
Temp. mínima en grados centígrados (hora)
DESCASC
Temp. media en grados centígrados
DESCASC
Racha de viento máxima en m/sg (hora)
DESCASC
Velocidad máxima media en intervalos de 10 minutos(hora)
DESCASC
Precipitaciones diarias en mm
DESCASC
Precipitaciones de 00:00 a 06:00 en mm
DESCASC
Precipitaciones de 06:00 a 12:00 en mm
DESCASC
Precipitaciones de 12:00 a 18:00 en mm
DESCASC
Precipitaciones de 18:00 a 24:00 en mm
DESCASC
23-05-2018 26.4 (17:20) 14.3 (06:50) 20.3 6.39 (01:20) 4.72 (01:00) 0 0 0 0 0
22-05-2018 25.3 (17:40) 12.2 (07:40) 18.7 6.67 (16:00) 4.17 (03:30) 0 0 0 0 0
21-05-2018 23.8 (17:10) 10.8 (07:10) 17.3 6.67 (19:20) 3.89 (18:10) 0 0 0 0 0
20-05-2018 21.6 (11:20) 13.1 (00:00) 17.4 10 (16:30) 6.94 (17:10) 5.4 0 0 5.4 0
19-05-2018 25.2 (16:30) 9.5 (00:00) 17.4 9.17 (17:30) 6.11 (17:30) 2 0 0 2 0
18-05-2018 22.4 (14:40) 12.4 (00:00) 17.4 10.83 (16:30) 6.11 (08:30) 19.6 4 0 4.8 10.8
17-05-2018 29 (17:20) 12.2 (00:00) 20.6 11.11 (21:00) 5.56 (21:00) 0 0 0 0 0
16-05-2018 27.1 (18:10) 11.7 (00:00) 19.4 10.83 (17:50) 4.17 (17:10) 0 0 0 0 0
15-05-2018 25.2 (19:00) 9.2 (00:00) 17.2 6.67 (15:50) 3.89 (15:50) 0 0 0 0 0
14-05-2018 22.5 (17:40) 8.9 (00:00) 15.7 11.39 (11:30) 6.67 (11:30) 0 0 0 0 0
13-05-2018 19 (17:20) 5.9 (00:00) 12.5 11.11 (17:10) 6.39 (19:10) 0 0 0 0 0
12-05-2018 18.3 (18:10) 10.5 (00:00) 14.4 13.89 (12:50) 7.5 (05:40) 0 0 0 0 0
11-05-2018 24.6 (17:50) 13.4 (08:10) 19 8.33 (08:10) 6.11 (08:10) 0 0 0 0 0
10-05-2018 24.6 (18:30) 11.3 (00:00) 18 9.17 (01:00) 6.67 (01:10) 0 0 0 0 0
09-05-2018 23.4 (16:50) 13.5 (00:00) 18.4 12.5 (20:30) 9.44 (19:50) 0 0 0 0 0
08-05-2018 26.2 (18:10) 15 (00:00) 20.6 8.33 (19:10) 5.28 (19:10) 0 0 0 0 0
07-05-2018 26.4 (16:10) 12.4 (00:00) 19.4 6.94 (18:00) 4.44 (17:30) 0.4 0 0 0.4 0
06-05-2018 24.3 (15:20) 10.8 (00:00) 17.5 7.5 (11:30) 5.28 (11:30) 0.2 0 0 0.2 0
05-05-2018 24.2 (18:20) 8.2 (00:00) 16.2 6.11 (16:20) 3.33 (15:40) 0 0 0 0 0
04-05-2018 20.2 (18:10) 6.3 (00:00) 13.3 8.33 (14:30) 5 (12:50) 0 0 0 0 0
03-05-2018 21.2 (17:40) 9.7 (00:00) 15.5 9.17 (19:50) 5.83 (01:30) 0 0 0 0 0
02-05-2018 17.4 (18:00) 6.7 (00:00) 12 8.06 (01:20) 5 (01:20) 0 0 0 0 0
01-05-2018 16.9 (19:20) 6.2 (07:40) 11.5 8.33 (23:40) 4.72 (23:40) 0 0 0 0 0
30-04-2018 15.4 (18:20) 5.6 (00:00) 10.5 8.89 (14:40) 4.72 (14:40) 0 0 0 0 0
29-04-2018 13.9 (17:30) 6.2 (00:00) 10 15.28 (18:10) 8.61 (18:20) 2.6 2.6 0 0 0
28-04-2018 15.4 (19:00) 6.1 (00:00) 10.7 9.44 (21:40) 6.11 (08:00) 2 0 0 0 2
27-04-2018 21.3 (17:50) 11.3 (00:00) 16.3 11.11 (06:00) 7.22 (04:00) 0 0 0 0 0
26-04-2018 26.7 (17:10) 13.8 (00:00) 20.3 9.17 (03:30) 7.22 (02:50) 0 0 0 0 0
25-04-2018 27.9 (18:50) 12.3 (00:00) 20.1 6.67 (16:10) 4.17 (19:30) 0 0 0 0 0
24-04-2018 25.7 (18:00) 15.9 (00:00) 20.8 8.89 (08:30) 5.28 (07:20) 0 0 0 0 0

Gráficas

Temp. máximas Temp. mínimas Temp. medias Precipitaciones Rachas de viento máximas Velocidades máximas media en intervalos de 10 minutos

Datos horarios

Fecha y hora oficial Temperatura (ºC) Velocidad del viento (km/h) Dirección del viento Racha (km/h) Dirección de racha Precipitación (mm) Presión (hPa) Tendencia (hPa) Humedad (%)
2018-05-23 23:00:00 19.9 15 Sur 21 Sudoeste 0 969.2 0.9 59
2018-05-23 22:00:00 20.9 12 Sur 18 Sur 0 968.9 0.7 56
2018-05-23 21:00:00 23 12 Sur 17 Sur 0 968.6 0.3 49
2018-05-23 20:00:00 25.3 4 Sudeste 13 Sur 0 968.3 -0.4 37
2018-05-23 19:00:00 25.3 7 Sudeste 16 Sudeste 0 968.2 -1.1 40
2018-05-23 18:00:00 25.8 7 Este 19 Sudeste 0 968.3 -1.1 37
2018-05-23 17:00:00 25.8 12 Sudoeste 22 Sudoeste 0 968.7 -1 34
2018-05-23 16:00:00 25.8 13 Sudeste 23 Sudeste 0 969.3 -1 42
2018-05-23 15:00:00 25.2 8 Sur 16 Este 0 969.4 -1 41
2018-05-23 14:00:00 24.8 8 Sur 13 Sudeste 0 969.7 -0.7 41
2018-05-23 13:00:00 23.9 7 Este 16 Este 0 970.3 -0.1 43
2018-05-23 12:00:00 22.9 6 Nordeste 13 Nordeste 0 970.4 0.2 49
2018-05-23 11:00:00 21.4 6 Este 10 Norte 0 970.4 0.6 58
2018-05-23 10:00:00 19 3 Norte 5 Nordeste 0 970.4 1 75
2018-05-23 09:00:00 17.2 0 Calma 4 Oeste 0 970.2 0.9 82
2018-05-23 08:00:00 15.7 0 Calma 6 Sudoeste 0 969.8 0.5 85
2018-05-23 07:00:00 14.4 4 Sur 8 Sudoeste 0 969.4 0.1 85
2018-05-23 06:00:00 14.5 6 Sudoeste 9 Sudoeste 0 969.3 -0.1 83
2018-05-23 05:00:00 15.1 4 Sudoeste 8 Sudoeste 0 969.3 -0.3 81
2018-05-23 04:00:00 15.8 6 Sudoeste 8 Sudoeste 0 969.3 -0.2 76
2018-05-23 03:00:00 16.1 5 Sudoeste 8 Sudoeste 0 969.4 -0.1 76
2018-05-23 02:00:00 17.4 3 Sudoeste 23 Oeste 0 969.6 0.5 67
2018-05-23 01:00:00 18.5 17 Sudoeste 22 Sudoeste 0 969.5 1.1 63
2018-05-23 00:00:00 18.7 15 Sudoeste 20 Oeste 0 969.5 1.5 65
2018-05-22 23:00:00 18.9 12 Sudoeste 15 Sudoeste 0 969.1 1.2 68
2018-05-22 22:00:00 20 9 Sudoeste 14 Sudoeste 0 968.4 0.5 61
2018-05-22 21:00:00 22.7 5 Sur 10 Sur 0 968 0 59
2018-05-22 20:00:00 25 5 Sudoeste 17 Sudoeste 0 967.9 -0.2 43
2018-05-22 19:00:00 24.8 11 Sudoeste 22 Sudoeste 0 967.9 -0.7 43
2018-05-22 18:00:00 25.1 6 Sur 18 Sur 0 968 -0.9 42
2018-05-22 17:00:00 25.1 6 Oeste 22 Sudeste 0 968.1 -0.8 40
2018-05-22 16:00:00 24.8 10 Sur 24 Sur 0 968.6 -0.4 41
2018-05-22 15:00:00 23.9 11 Sur 21 Sur 0 968.9 -0.2 43
2018-05-22 14:00:00 23.1 12 Sur 21 Sur 0 968.9 -0.1 46
2018-05-22 13:00:00 22.5 8 Sudoeste 17 Sudeste 0 969 0.2 49
2018-05-22 12:00:00 20.7 4 Sudoeste 12 Nordeste 0 969.1 0.6 61
2018-05-22 11:00:00 19.9 4 Este 10 Este 0 969 0.7 68
2018-05-22 10:00:00 18.3 6 Este 8 Nordeste 0 968.8 1 74
2018-05-22 09:00:00 17 4 Este 9 Nordeste 0 968.5 1.2 75
2018-05-22 08:00:00 13.2 0 Calma 6 Sudoeste 0 968.3 1.1 91
2018-05-22 07:00:00 12.5 0 Calma 5 Sudoeste 0 967.8 0.8 92
2018-05-22 06:00:00 13.3 3 Oeste 8 Oeste 0 967.3 0.2 86
2018-05-22 05:00:00 14.7 5 Norte 14 Oeste 0 967.2 0.1 79
2018-05-22 04:00:00 15.7 7 Oeste 21 Oeste 0 967 -0.4 71
2018-05-22 03:00:00 16.1 12 Sudoeste 20 Sudoeste 0 967.1 -0.2 61
2018-05-22 02:00:00 15.3 10 Sudoeste 15 Sudoeste 0 967.1 0.1 62
2018-05-22 01:00:00 15.7 10 Sudoeste 12 Sudoeste 0 967.4 1 62
2018-05-22 00:00:00 17.1 8 Sudoeste 17 Sudoeste 0 967.3 1.6 63
2018-05-21 23:00:00 17.1 8 Sudoeste 14 Oeste 0 967 1.8 71
2018-05-21 22:00:00 18.5 11 Sudoeste 17 Oeste 0 966.4 1.3 66
2018-05-21 21:00:00 21.2 7 Oeste 19 Noroeste 0 965.7 0.7 55
2018-05-21 20:00:00 22.3 11 Oeste 24 Oeste 0 965.2 0 49
2018-05-21 19:00:00 22.5 9 Oeste 22 Noroeste 0 965.1 -0.6 48
2018-05-21 18:00:00 23.2 11 Oeste 24 Sudoeste 0 965 -1.1 48
2018-05-21 17:00:00 23.4 9 Sudoeste 22 Sudoeste 0 965.2 -1.4 50
2018-05-21 16:00:00 21.2 9 Noroeste 18 Noroeste 0 965.7 -1.2 57
2018-05-21 15:00:00 20.4 8 Oeste 13 Sudoeste 0 966.1 -0.9 57
2018-05-21 14:00:00 20.6 9 Sudoeste 22 Sur 0 966.6 -0.4 59
2018-05-21 13:00:00 21 8 Sur 16 Sur 0 966.9 -0.1 54
2018-05-21 12:00:00 19.6 4 Oeste 13 Sudoeste 0 967 0.3 59
2018-05-21 11:00:00 18.4 4 Oeste 10 Nordeste 0 967 0.5 69
2018-05-21 10:00:00 17.6 5 Este 10 Este 0 967 0.9 69
2018-05-21 09:00:00 16.6 4 Este 8 Sudeste 0 966.7 0.6 76
2018-05-21 08:00:00 11.9 3 Sudoeste 8 Sudoeste 0 966.5 0.4 93
2018-05-21 07:00:00 10.9 3 Sudoeste 6 Sur 0 966.1 -0.1 94
2018-05-21 06:00:00 11.5 6 Sudoeste 8 Sudoeste 0 966.1 -0.3 94
2018-05-21 05:00:00 11.8 5 Sudoeste 9 Sudeste 0 966.1 -0.9 93
2018-05-21 04:00:00 12.1 5 Oeste 8 Sudoeste 0 966.2 -1 91
2018-05-21 03:00:00 12.5 6 Sudoeste 10 Sudoeste 0 966.4 -1 91
2018-05-21 02:00:00 13 4 Sur 11 Sudoeste 0 967 -0.3 90
2018-05-21 01:00:00 12.5 5 Sudeste 10 Sudoeste 0 967.2 0.2 90
2018-05-21 00:00:00 13.2 9 Sudoeste 11 Sudoeste 0 967.4 0.7 88
2018-05-20 23:00:00 13.7 6 Sudoeste 10 Sudoeste 0 967.3 1.1 84
2018-05-20 22:00:00 14.4 6 Sudoeste 12 Sudoeste 0 967 0.3 85
2018-05-20 21:00:00 16.6 2 Sudoeste 12 Este 0 966.7 -0.2 81
2018-05-20 20:00:00 17.1 8 Norte 15 Noroeste 0 966.2 -1.4 76
2018-05-20 19:00:00 17.5 9 Norte 27 Sur 0 966.7 -1.6 66
2018-05-20 18:00:00 16 21 Sur 35 Sur 0 966.9 -1.4 68
2018-05-20 17:00:00 15.1 23 Sur 36 Sudeste 0.4 967.6 -0.7 77
2018-05-20 16:00:00 15.5 17 Sudeste 30 Este 0 968.3 -0.5 85
2018-05-20 15:00:00 17.9 7 Sudeste 18 Sudoeste 0 968.3 -0.7 86
2018-05-20 14:00:00 16.4 13 Sur 21 Sudoeste 4.6 968.3 -0.6 87
2018-05-20 13:00:00 20.3 4 Noroeste 18 Sudoeste 0.4 968.8 -0.2 67
2018-05-20 12:00:00 20.5 8 Sur 18 Sur 0 969 0.1 64
2018-05-20 11:00:00 20.9 7 Sudeste 15 Sudeste 0 968.9 0.1 61
2018-05-20 10:00:00 18.9 8 Este 14 Este 0 969 0.7 70
2018-05-20 09:00:00 16.1 4 Sur 14 Nordeste 0 968.9 0.5 82
2018-05-20 08:00:00 15.2 5 Nordeste 9 Este 0 968.8 0.2 85
2018-05-20 07:00:00 14.9 5 Sudoeste 7 Sudoeste 0 968.3 -0.6 83
2018-05-20 06:00:00 15.4 2 Nordeste 8 Oeste 0 968.4 -1.1 78
2018-05-20 05:00:00 15 0 Calma 12 Noroeste 0 968.6 -1.6 80
2018-05-20 04:00:00 16.7 10 Oeste 20 Oeste 0 968.9 -1.4 70
2018-05-20 03:00:00 16.8 15 Sudoeste 22 Sudoeste 0 969.5 -1.1 71
2018-05-20 02:00:00 16.8 17 Sudoeste 22 Sudoeste 0 970.2 0.1 73
2018-05-20 01:00:00 17.4 17 Sudoeste 25 Sudoeste 0 970.3 0.7 68
2018-05-20 00:00:00 17.7 4 Sudoeste 20 Sudoeste 0 970.6 1.3 67
2018-05-19 23:00:00 16.8 5 Sur 9 Sudoeste 0 970.1 0.6 76
2018-05-19 22:00:00 16.7 6 Sudoeste 8 Sudoeste 0 969.6 -0.5 76
2018-05-19 21:00:00 19.2 2 Sur 11 Este 0 969.3 -0.7 75
2018-05-19 20:00:00 18.6 5 Sudeste 13 Sudeste 0 969.5 0 69
2018-05-19 19:00:00 17.1 10 Norte 21 Norte 0 970.1 0.5 76
2018-05-19 18:00:00 17.7 12 Sur 33 Este 2 970 -0.1 78
2018-05-19 17:00:00 24.3 5 Noroeste 18 Noroeste 0 969.5 -1.5 42
2018-05-19 16:00:00 24.5 6 Norte 15 Nordeste 0 969.6 -1.8 44
2018-05-19 15:00:00 24.1 7 Norte 16 Norte 0 970.1 -1.4 45
2018-05-19 14:00:00 23 6 Noroeste 11 Sudeste 0 971 -0.7 49
2018-05-19 13:00:00 21.5 6 Sudeste 12 Sudeste 0 971.4 -0.1 59
2018-05-19 12:00:00 19.6 3 Noroeste 9 Este 0 971.5 0.3 67
2018-05-19 11:00:00 17.4 4 Este 11 Este 0 971.7 0.8 74
2018-05-19 10:00:00 15.7 3 Este 8 Este 0 971.5 1 76
2018-05-19 09:00:00 12.7 4 Norte 7 Norte 0 971.2 0.9 92
2018-05-19 08:00:00 10.5 0 Calma 8 Norte 0 970.9 0.6 97
2018-05-19 07:00:00 9.7 3 Sur 6 Sudoeste 0 970.5 0.3 97
2018-05-19 06:00:00 10 4 Oeste 10 Sudoeste 0 970.3 -0.2 95
2018-05-19 05:00:00 10.5 9 Sudoeste 11 Sudoeste 0 970.3 -0.4 95
2018-05-19 04:00:00 10.8 4 Sudoeste 11 Noroeste 0 970.2 -0.6 94
2018-05-19 03:00:00 11.1 3 Sudoeste 8 Sudoeste 0 970.5 -0.2 91
2018-05-19 02:00:00 11.2 3 Sudoeste 10 Sudoeste 0 970.7 0.1 94
2018-05-19 01:00:00 11.3 3 Sudoeste 14 Sudoeste 0 970.8 0.7 93
2018-05-19 00:00:00 12.5 4 Sur 12 Sudoeste 0 970.7 1.9 91
2018-05-18 23:00:00 13 7 Sudoeste 12 Sur 0 970.6 0.7 92
2018-05-18 22:00:00 13.3 8 Sudoeste 24 Este 0.2 970.1 -0.5 88
2018-05-18 21:00:00 13.5 10 Sur 22 Sudeste 0.6 968.8 -1.7 87
2018-05-18 20:00:00 13.8 11 Este 30 Este 5.2 969.9 -0.1 89
2018-05-18 19:00:00 13.2 10 Sudeste 22 Oeste 4.8 970.6 1 91
2018-05-18 18:00:00 12.6 10 Oeste 37 Noroeste 3.6 970.5 1.8 92
2018-05-18 17:00:00 13.9 14 Norte 39 Norte 1.2 970 0.7 90
2018-05-18 16:00:00 16.6 19 Noroeste 36 Norte 0 969.6 -0.2 75
2018-05-18 15:00:00 21.5 17 Sudeste 31 Sudeste 0 968.7 -1.1 54
2018-05-18 14:00:00 21.7 14 Sudeste 27 Sur 0 969.3 -0.2 59
2018-05-18 13:00:00 20 13 Sur 27 Sudoeste 0 969.8 0.5 61
2018-05-18 12:00:00 18.6 14 Sur 28 Sur 0 969.8 1.2 67
2018-05-18 11:00:00 17.6 13 Sur 23 Sur 0 969.5 0.9 73
2018-05-18 10:00:00 16.8 11 Sur 32 Sur 0 969.3 1.7 75
2018-05-18 09:00:00 14.5 18 Sur 32 Sudoeste 0 968.6 1.2 85
2018-05-18 08:00:00 14.6 6 Sudeste 27 Sur 0 968.6 1.1 86
2018-05-18 07:00:00 14.2 9 Sudeste 19 Sur 0 967.6 0.1 87
2018-05-18 06:00:00 13.3 3 Oeste 5 Noroeste 0 967.4 -0.3 91
2018-05-18 05:00:00 14.3 0 Calma 11 Este 0 967.5 -0.5 88
2018-05-18 04:00:00 14.4 7 Sudeste 11 Sur 0 967.5 -1.5 85
2018-05-18 03:00:00 14.7 4 Sudeste 9 Sudeste 0 967.7 -2.7 86
2018-05-18 02:00:00 15.4 8 Este 28 Sudeste 0.2 968 -0.9 78
2018-05-18 01:00:00 15.1 6 Sur 14 Sudeste 3.8 969 2.2 88
2018-05-18 00:00:00 17 5 Noroeste 33 Norte 0 970.4 3.6 70
2018-05-17 23:00:00 20.1 18 Norte 39 Norte 0 968.9 3.1 52
2018-05-17 22:00:00 20.5 7 Este 27 Norte 0 966.8 0.9 44
2018-05-17 21:00:00 22.7 20 Norte 40 Norte 0 966.8 0.8 40
2018-05-17 20:00:00 26.8 10 Sur 16 Sudeste 0 965.8 -0.5 27
2018-05-17 19:00:00 27.8 10 Sudeste 18 Sudeste 0 965.9 -0.9 24
2018-05-17 18:00:00 28.2 9 Este 18 Este 0 966 -1.2 22
2018-05-17 17:00:00 27.9 7 Norte 17 Nordeste 0 966.3 -1.4 21
2018-05-17 16:00:00 27.8 6 Norte 17 Nordeste 0 966.8 -1.3 23
2018-05-17 15:00:00 26.8 9 Este 20 Este 0 967.2 -1.1 25
2018-05-17 14:00:00 26 9 Este 20 Sudeste 0 967.7 -0.6 27
2018-05-17 13:00:00 24.6 7 Este 20 Este 0 968.1 -0.1 29
2018-05-17 12:00:00 23.5 11 Este 22 Este 0 968.3 0.3 33
2018-05-17 11:00:00 22.5 10 Este 24 Sudeste 0 968.3 0.6 37
2018-05-17 10:00:00 21.1 14 Sudeste 25 Sudeste 0 968.2 0.9 40
2018-05-17 09:00:00 17.6 10 Este 15 Este 0 968 1.2 50
2018-05-17 08:00:00 14.7 8 Sudeste 11 Sudeste 0 967.7 0.8 60
2018-05-17 07:00:00 12.2 4 Sudoeste 7 Norte 0 967.3 0.5 70
2018-05-17 06:00:00 14.4 4 Sur 8 Sur 0 966.8 0 60
2018-05-17 05:00:00 14.8 5 Sur 9 Sur 0 966.9 0.1 58
2018-05-17 04:00:00 15.3 6 Sur 9 Sur 0 966.8 -0.2 58
2018-05-17 03:00:00 15.9 5 Sudoeste 11 Sudoeste 0 966.8 -0.3 58
2018-05-17 02:00:00 15.9 5 Sudoeste 9 Sudoeste 0 966.8 -0.1 56
2018-05-17 01:00:00 16.7 5 Sudoeste 9 Sudoeste 0 967 0.7 51
2018-05-17 00:00:00 17.3 6 Sudoeste 10 Sudoeste 0 967.1 0.9 49
2018-05-16 23:00:00 18.1 6 Sudoeste 8 Sudoeste 0 966.9 1 45
2018-05-16 22:00:00 19.8 6 Sudoeste 10 Nordeste 0 966.3 0.1 47
2018-05-16 21:00:00 24.8 6 Nordeste 13 Nordeste 0 966.2 -0.1 32
2018-05-16 20:00:00 26.4 8 Nordeste 17 Nordeste 0 965.9 -0.8 29
2018-05-16 19:00:00 27 5 Sudeste 17 Nordeste 0 966.2 -1.1 25
2018-05-16 18:00:00 26.9 8 Nordeste 39 Norte 0 966.3 -1.6 26
2018-05-16 17:00:00 26.6 11 Este 27 Norte 0 966.7 -1.7 27
2018-05-16 16:00:00 26.5 13 Nordeste 26 Sudeste 0 967.3 -1.7 29
2018-05-16 15:00:00 26 11 Nordeste 22 Nordeste 0 967.9 -1.4 29
2018-05-16 14:00:00 24.9 12 Nordeste 23 Nordeste 0 968.4 -0.9 33
2018-05-16 13:00:00 23.6 12 Este 23 Nordeste 0 969 -0.4 36
2018-05-16 12:00:00 22.2 12 Este 24 Nordeste 0 969.3 -0.1 40
2018-05-16 11:00:00 20.4 13 Nordeste 23 Nordeste 0 969.3 0.1 44
2018-05-16 10:00:00 18.3 4 Nordeste 13 Este 0 969.4 0.4 55
2018-05-16 09:00:00 16.7 7 Este 12 Este 0 969.4 0.5 54
2018-05-16 08:00:00 14.6 7 Sudeste 17 Sudeste 0 969.2 0.2 62
2018-05-16 07:00:00 13.2 8 Sudeste 13 Sudeste 0 969 -0.3 65
2018-05-16 06:00:00 12.4 3 Sudeste 10 Sudeste 0 968.9 -0.4 66
2018-05-16 05:00:00 12.1 3 Sur 5 Sudoeste 0 969 -0.8 68
2018-05-16 04:00:00 11.9 4 Sudoeste 7 Sudoeste 0 969.3 -0.5 70
2018-05-16 03:00:00 12.9 5 Sudoeste 9 Sudoeste 0 969.3 -0.6 66
2018-05-16 02:00:00 14.1 6 Sudoeste 9 Oeste 0 969.8 0.1 60
2018-05-16 01:00:00 15.4 6 Sudoeste 9 Sudoeste 0 969.8 0.5 55
2018-05-16 00:00:00 16.2 6 Sudoeste 9 Sudoeste 0 969.9 0.7 50
2018-05-15 23:00:00 16.3 6 Sudoeste 10 Sudoeste 0 969.7 0.7 50
2018-05-15 22:00:00 17.3 7 Sudoeste 9 Sudoeste 0 969.3 -0.1 51
2018-05-15 21:00:00 23.4 4 Norte 14 Nordeste 0 969.2 -0.5 35
2018-05-15 20:00:00 24.3 8 Nordeste 18 Norte 0 969 -1.2 24
2018-05-15 19:00:00 25.2 8 Noroeste 21 Norte 0 969.4 -1.5 25
2018-05-15 18:00:00 24.9 8 Nordeste 21 Nordeste 0 969.7 -2 24
2018-05-15 17:00:00 24.3 4 Norte 17 Norte 0 970.2 -2 27
2018-05-15 16:00:00 23 10 Nordeste 24 Norte 0 970.9 -1.9 29
2018-05-15 15:00:00 22.6 9 Nordeste 21 Norte 0 971.7 -1.3 30
2018-05-15 14:00:00 22.1 6 Norte 16 Este 0 972.2 -1.1 28
2018-05-15 13:00:00 20.9 5 Nordeste 19 Noroeste 0 972.8 -0.5 30
2018-05-15 12:00:00 19.6 5 Noroeste 14 Nordeste 0 973 -0.3 39
2018-05-15 11:00:00 17.4 5 Nordeste 15 Norte 0 973.3 0.1 45
2018-05-15 10:00:00 15.4 8 Este 13 Este 0 973.3 0.4 50
2018-05-15 09:00:00 14 2 Sudeste 5 Norte 0 973.3 0.7 56
2018-05-15 08:00:00 10.4 3 Noroeste 5 Oeste 0 973.2 0.7 73
2018-05-15 07:00:00 9.6 3 Sudoeste 7 Sudoeste 0 972.9 0.6 74
2018-05-15 06:00:00 9.6 3 Sudoeste 6 Sur 0 972.6 0.2 75
2018-05-15 05:00:00 10.6 4 Sudeste 8 Sur 0 972.5 0 71
2018-05-15 04:00:00 10.7 5 Sudoeste 8 Sudoeste 0 972.3 -0.3 71
2018-05-15 03:00:00 10.9 5 Sudoeste 8 Oeste 0 972.4 -0.4 70
2018-05-15 02:00:00 11.6 4 Sudoeste 8 Sudoeste 0 972.5 -0.2 66
2018-05-15 01:00:00 13.7 5 Sudoeste 10 Oeste 0 972.6 0.5 58
2018-05-15 00:00:00 14.7 7 Oeste 10 Oeste 0 972.8 1 55
2018-05-14 23:00:00 15.1 5 Oeste 8 Oeste 0 972.7 0.9 58
2018-05-14 22:00:00 17 3 Noroeste 19 Nordeste 0 972.1 0.1 53
2018-05-14 21:00:00 20 11 Norte 30 Norte 0 971.8 -0.2 42
2018-05-14 20:00:00 21.4 18 Norte 32 Norte 0 971.8 -0.4 41
2018-05-14 19:00:00 22.1 18 Norte 37 Norte 0 972 -0.7 39
2018-05-14 18:00:00 22.3 17 Norte 38 Norte 0 972 -1.5 38
2018-05-14 17:00:00 22 20 Norte 38 Norte 0 972.2 -1.5 38
2018-05-14 16:00:00 21.2 22 Norte 39 Norte 0 972.7 -1.4 40
2018-05-14 15:00:00 20 19 Norte 40 Noroeste 0 973.5 -0.9 45
2018-05-14 14:00:00 19.3 23 Noroeste 39 Noroeste 0 973.7 -0.7 49
2018-05-14 13:00:00 18.9 21 Noroeste 36 Norte 0 974.1 -0.4 49
2018-05-14 12:00:00 17.8 16 Norte 41 Noroeste 0 974.4 -0.5 51
2018-05-14 11:00:00 16 15 Noroeste 33 Norte 0 974.4 -0.7 56
2018-05-14 10:00:00 14 17 Norte 29 Norte 0 974.5 -0.6 62
2018-05-14 09:00:00 12.1 16 Noroeste 25 Noroeste 0 974.9 -0.5 68
2018-05-14 08:00:00 9.4 8 Noroeste 16 Oeste 0 975.1 -0.1 78
2018-05-14 07:00:00 9.2 6 Noroeste 19 Noroeste 0 975.1 -0.1 78
2018-05-14 06:00:00 9.3 9 Noroeste 16 Noroeste 0 975.4 -0.4 78
2018-05-14 05:00:00 9.6 7 Noroeste 13 Noroeste 0 975.2 -0.8 75
2018-05-14 04:00:00 9.7 6 Oeste 14 Noroeste 0 975.2 -1 75
2018-05-14 03:00:00 10.2 3 Oeste 16 Oeste 0 975.8 -0.4 73
2018-05-14 02:00:00 10.7 5 Oeste 17 Noroeste 0 976 0 71
2018-05-14 01:00:00 11.5 8 Noroeste 17 Noroeste 0 976.2 0.5 65
2018-05-11 20:00:00 22.4 15 Oeste 23 Sudoeste 0 970.5 -0.7 46
2018-05-11 19:00:00 23.8 14 Oeste 24 Oeste 0 970.5 -1.3 45
2018-05-11 18:00:00 24.2 11 Sur 24 Sudoeste 0 970.6 -1.5 43
2018-05-11 17:00:00 23.6 7 Oeste 26 Sudoeste 0 971.2 -1.2 46
2018-05-11 16:00:00 23.3 8 Sudoeste 24 Sudoeste 0 971.8 -0.6 49
2018-05-11 15:00:00 23 13 Oeste 26 Sudoeste 0 972.1 -0.4 52
2018-05-11 14:00:00 22.1 14 Sudoeste 23 Oeste 0 972.4 0.3 54
2018-05-11 13:00:00 20.4 10 Sudoeste 19 Sudoeste 0 972.4 0.4 66
2018-05-11 12:00:00 20 8 Sur 22 Sur 0 972.5 1.2 63
2018-05-11 11:00:00 19.9 14 Sur 20 Sur 0 972.1 1 67
2018-05-11 10:00:00 19.2 5 Sudoeste 18 Sur 0 972 1.6 61
2018-05-11 09:00:00 16.1 18 Sur 30 Sur 0 971.3 1.4 79
2018-05-11 08:00:00 13.7 13 Sur 25 Sudoeste 0 971.1 1.3 87
2018-05-11 07:00:00 14.5 14 Sudoeste 21 Sudoeste 0 970.4 0.4 83
2018-05-11 06:00:00 15.2 7 Sudoeste 15 Sudoeste 0 969.9 -0.1 81
2018-05-11 05:00:00 15.7 13 Sudoeste 23 Sudoeste 0 969.8 -0.4 78
2018-05-11 04:00:00 16.6 7 Sudeste 21 Sur 0 970 -0.3 74
2018-05-11 03:00:00 17.8 12 Sudoeste 18 Sudoeste 0 970 -0.3 69
2018-05-11 02:00:00 18.2 12 Sudoeste 19 Sudoeste 0 970.2 0.2 69
2018-05-11 01:00:00 18.9 14 Sudoeste 22 Sudoeste 0 970.3 0.7 65
2018-05-11 00:00:00 19.5 17 Sudoeste 26 Sudoeste 0 970.3 1.4 63
2018-05-10 23:00:00 17.6 10 Sur 12 Sur 0 970 1.5 74
2018-05-10 22:00:00 18.1 9 Sudoeste 12 Sudoeste 0 969.6 0.8 73
2018-05-10 21:00:00 21.8 8 Sudoeste 12 Sudoeste 0 968.9 0 60
2018-05-10 20:00:00 23.8 7 Sudoeste 14 Sudoeste 0 968.5 -0.6 52
2018-05-10 19:00:00 24.3 7 Sur 15 Sur 0 968.8 -0.6 51
2018-05-10 18:00:00 23.9 10 Sudoeste 16 Sudoeste 0 968.9 -0.8 51
2018-05-10 17:00:00 23.1 6 Sudeste 21 Sudeste 0 969.1 -0.8 53
2018-05-10 16:00:00 22.8 6 Este 21 Este 0 969.4 -0.5 53
2018-05-10 15:00:00 22.2 11 Este 21 Este 0 969.7 -- 54
2018-05-10 14:00:00 20.9 10 Este 18 Nordeste 0 969.9 0.2 58
2018-05-10 13:00:00 20.1 9 Este -- -- 0 969.9 0.9 60
2018-05-10 12:00:00 -- -- -- -- -- 0 -- -- --
2018-05-10 11:00:00 17.1 6 Nordeste -- -- 0 969.7 1.5 66
2018-05-10 10:00:00 16.3 5 Este 11 Norte 0 969 1.2 63
2018-05-10 09:00:00 13.8 5 Oeste 14 Oeste 0 968.6 1.2 70
2018-05-10 08:00:00 12 8 Oeste 16 Oeste 0 968.2 0.8 77
2018-05-10 07:00:00 11.4 10 Oeste 23 Sudoeste 0 967.8 0.6 81
2018-05-10 06:00:00 12.5 12 Oeste 23 Sudoeste 0 967.4 0.1 76
2018-05-10 05:00:00 12.6 16 Sudoeste 31 Sudoeste 0 967.4 0 78
2018-05-10 04:00:00 13.1 22 Sudoeste 31 Sudoeste 0 967.2 -0.5 73
2018-05-10 03:00:00 12.8 19 Sudoeste 29 Sudoeste 0 967.3 -0.3 80
2018-05-10 02:00:00 13.6 16 Sudoeste 32 Sudoeste 0 967.4 0.1 79
2018-05-10 01:00:00 14.6 22 Sudoeste 33 Sudoeste 0 967.7 0.5 72
2018-05-10 00:00:00 15.2 17 Oeste 35 Sudoeste 0 967.6 1.4 69
2018-05-09 23:00:00 15.7 22 Sudoeste 33 Sudoeste 0 967.3 1.5 72
2018-05-09 22:00:00 16.7 14 Oeste 32 Oeste 0 967.2 1.5 72
2018-05-09 21:00:00 17.4 19 Sudoeste 45 Sudoeste 0 966.2 0.4 78
2018-05-09 20:00:00 18.5 27 Sudoeste 44 Sudoeste 0 965.8 -0.1 74
2018-05-09 19:00:00 21 23 Sudoeste 40 Sur 0 965.7 -0.6 67
2018-05-09 18:00:00 22.4 18 Sudoeste 41 Sur 0 965.8 -0.9 64
2018-05-09 17:00:00 23.3 17 Sudoeste 33 Sudoeste 0 965.9 -1.1 61
2018-05-09 16:00:00 22.9 17 Sudoeste 31 Sur 0 966.3 -0.9 63
2018-05-09 15:00:00 22.4 17 Sudoeste 28 Sudoeste 0 966.7 -0.4 62
2018-05-09 14:00:00 20.9 16 Sudoeste 25 Sudoeste 0 967 -0.1 67
2018-05-09 13:00:00 20.7 13 Sudoeste 24 Sudoeste 0 967.2 0.1 69
2018-05-09 12:00:00 20.5 13 Sudoeste 20 Oeste 0 967.1 0.4 69
2018-05-09 11:00:00 19.3 9 Sudoeste 20 Sudoeste 0 967.1 0.7 67
2018-05-09 10:00:00 17.4 15 Sudoeste 25 Sudoeste 0 967.1 1.6 77
2018-05-09 09:00:00 16.2 18 Sudoeste 26 Sudoeste 0 966.7 0.9 80
2018-05-09 08:00:00 14.1 3 Sudeste 7 Este 0 966.4 0.2 91
2018-05-09 07:00:00 14.3 3 Sudeste 23 Sudoeste 0 965.5 -0.7 88
2018-05-09 06:00:00 15.7 17 Sudoeste 27 Sudoeste 0 965.8 -0.5 80
2018-05-09 05:00:00 16.3 13 Sudoeste 24 Sudoeste 0 966.2 -0.4 84
2018-05-09 04:00:00 16.1 11 Sudoeste 27 Sur 0 966.2 -0.3 86
2018-05-09 03:00:00 17.4 14 Sudoeste 26 Sudoeste 0 966.3 -0.4 79
2018-05-09 02:00:00 17.4 9 Sur 28 Sudoeste 0 966.6 -0.5 82
2018-05-09 01:00:00 18.6 19 Sudoeste 27 Sudoeste 0 966.5 0.4 76
2018-05-09 00:00:00 19.6 12 Sudoeste 19 Sudoeste 0 966.7 1.1 74
2018-05-08 23:00:00 20 8 Noroeste 19 Noroeste 0 967.1 1.9 73
2018-05-08 22:00:00 20.8 8 Oeste 17 Noroeste 0 966.1 0.9 69
2018-05-08 21:00:00 22.6 9 Oeste 24 Noroeste 0 965.6 0.1 61
2018-05-08 20:00:00 24.7 13 Noroeste 30 Noroeste 0 965.2 -0.6 53
2018-05-08 19:00:00 26 15 Noroeste 28 Noroeste 0 965.2 -1.2 48
2018-05-08 18:00:00 25.9 12 Noroeste 23 Noroeste 0 965.5 -1.3 48
2018-05-08 17:00:00 25.9 10 Noroeste 24 Noroeste 0 965.8 -1.5 49
2018-05-08 16:00:00 25.2 13 Oeste 24 Noroeste 0 966.4 -1.5 53
2018-05-08 15:00:00 24.6 10 Oeste 22 Oeste 0 966.8 -1.3 55
2018-05-08 14:00:00 24.2 9 Sudoeste 17 Noroeste 0 967.3 -0.6 56
2018-05-08 13:00:00 22.8 10 Noroeste 17 Oeste 0 967.9 -0.2 58
2018-05-08 12:00:00 21.3 6 Noroeste 12 Oeste 0 968.1 0.3 61
2018-05-08 11:00:00 19.3 8 Oeste 15 Oeste 0 967.9 0.5 69
2018-05-08 10:00:00 17.6 6 Sudoeste 10 Sudoeste 0 968.1 0.7 77
2018-05-08 09:00:00 16.5 3 Sudoeste 8 Sudoeste 0 967.8 0.3 81
2018-05-08 08:00:00 15.7 6 Oeste 9 Oeste 0 967.4 -0.2 80
2018-05-08 07:00:00 15 6 Oeste 8 Oeste 0 967.4 -0.3 82
2018-05-08 06:00:00 16.3 4 Oeste 9 Sudoeste 0 967.5 -0.5 78
2018-05-08 05:00:00 16.3 5 Oeste 11 Oeste 0 967.6 -1.3 80
2018-05-08 04:00:00 17 6 Noroeste 13 Sudoeste 0 967.7 -1.4 76
2018-05-08 03:00:00 16.7 6 Sudoeste 10 Noroeste 0 968 -0.9 78
2018-05-08 02:00:00 17.6 12 Noroeste 19 Noroeste 0 968.9 -0.2 73
2018-05-08 01:00:00 18.8 10 Oeste 17 Oeste 0 969.1 0.9 67
2018-05-08 00:00:00 19 6 Oeste 15 Oeste 0 968.9 0.9 66
2018-05-07 23:00:00 19.1 6 Oeste 22 Noroeste 0 969.1 1.4 69
2018-05-07 22:00:00 19.3 5 Oeste 10 Oeste 0 968.2 0.3 66
2018-05-07 21:00:00 19.9 4 Oeste 12 Noroeste 0 968 -0.1 64
2018-05-07 20:00:00 22.4 9 Noroeste 14 Noroeste 0 967.7 -0.2 52
2018-05-07 19:00:00 23.9 6 Norte 18 Oeste 0 967.9 -0.3 48
2018-05-07 18:00:00 23.5 13 Noroeste 25 Norte 0.4 968.1 -0.8 49
2018-05-07 17:00:00 24.9 5 Norte 14 Noroeste 0 967.9 -1.6 45
2018-05-07 16:00:00 25.6 8 Norte 17 Nordeste 0 968.2 -1.8 42
2018-05-07 15:00:00 24.9 8 Este 17 Este 0 968.9 -1.3 45
2018-05-07 14:00:00 24.2 9 Este 17 Este 0 969.5 -0.7 46
2018-05-07 13:00:00 22.7 8 Este 13 Este 0 970 -0.2 53
2018-05-07 12:00:00 22.2 6 Este 12 Este 0 970.2 0.3 50
2018-05-07 11:00:00 20.3 6 Este 9 Este 0 970.2 0.6 63
2018-05-07 10:00:00 17.4 4 Nordeste 9 Nordeste 0 970.2 1 76
2018-05-07 09:00:00 15.9 5 Nordeste 9 Sur 0 969.9 1.1 81
2018-05-07 08:00:00 13 3 Sudoeste 12 Sur 0 969.6 0.5 90
2018-05-07 07:00:00 12.4 6 Sur 10 Sur 0 969.2 0.4 91
2018-05-07 06:00:00 13.2 4 Sudoeste 8 Sur 0 968.8 0 88
2018-05-07 05:00:00 12.5 6 Sur 8 Sur 0 969.1 -0.1 89
2018-05-07 04:00:00 13.8 0 Calma 9 Noroeste 0 968.8 -0.3 83
2018-05-07 03:00:00 14.2 5 Sudoeste 9 Sudoeste 0 968.8 -0.5 81
2018-05-07 02:00:00 14.4 6 Sudoeste 8 Sudoeste 0 969.2 -0.1 81
2018-05-07 01:00:00 15.5 7 Sudoeste 9 Sudoeste 0 969.1 0.4 77
2018-05-07 00:00:00 15.9 6 Sudoeste 9 Sudoeste 0 969.3 0.9 75
2018-05-06 23:00:00 16.4 5 Sudoeste 14 Noroeste 0 969.3 1.2 75
2018-05-06 22:00:00 18.1 6 Sur 9 Sur 0 968.7 0.7 65
2018-05-06 21:00:00 22.1 3 Sudeste 11 Este 0 968.4 -0.1 57
2018-05-06 20:00:00 23.1 7 Este 12 Este 0 968.1 -0.7 52
2018-05-06 19:00:00 22.6 6 Nordeste 12 Norte 0 968 -1.3 49
2018-05-06 18:00:00 22.5 6 Sudoeste 23 Este 0 968.5 -1.2 49
2018-05-06 17:00:00 23.8 11 Este 19 Este 0.2 968.8 -1.3 51
2018-05-06 16:00:00 23.7 8 Este 23 Sudeste 0 969.3 -1.1 46
2018-05-06 15:00:00 23.5 13 Este 23 Sudeste 0 969.7 -1.1 49
2018-05-06 14:00:00 23.3 12 Este 24 Sudeste 0 970.1 -0.9 49
2018-05-06 13:00:00 22.4 14 Este 27 Sudeste 0 970.4 -0.5 53
2018-05-06 12:00:00 21 12 Este 27 Este 0 970.8 0.4 57
2018-05-06 11:00:00 19 16 Este 24 Este 0 971 1 60
2018-05-06 10:00:00 16.9 8 Este 13 Este 0 970.9 1.7 68
2018-05-06 09:00:00 14.8 4 Sudeste 8 Sudeste 0 970.4 1.1 72
2018-05-06 08:00:00 11.4 3 Sudeste 10 Noroeste 0 970 0.9 84
2018-05-06 07:00:00 12.6 4 Sudeste 12 Sudeste 0 969.2 0 73
2018-05-06 06:00:00 10.8 7 Sur 24 Norte 0 969.3 -0.1 86
2018-05-06 05:00:00 12.4 4 Sudoeste 9 Sudoeste 0 969.1 -0.3 73
2018-05-06 04:00:00 14.1 7 Sudoeste 10 Sudoeste 0 969.2 -0.3 66
2018-05-06 03:00:00 13.8 0 Calma 8 Sudoeste 0 969.4 0.1 70
2018-05-06 02:00:00 16.6 5 Sudoeste 7 Sudoeste 0 969.4 0.2 58
2018-05-06 01:00:00 15.3 3 Sudoeste 10 Sudoeste 0 969.5 0.7 60
2018-05-06 00:00:00 15.5 8 Sudoeste 10 Sudoeste 0 969.3 0.7 61
2018-05-05 23:00:00 15.8 8 Sudoeste 12 Sudoeste 0 969.2 0.6 60
2018-05-05 22:00:00 17.1 7 Sudoeste 10 Sudoeste 0 968.8 0 56
2018-05-05 21:00:00 21 5 Sudoeste 9 Norte 0 968.6 -0.2 52
2018-05-05 20:00:00 23.5 7 Norte 12 Nordeste 0 968.6 -0.3 34
2018-05-05 19:00:00 24.1 5 Norte 16 Noroeste 0 968.8 -0.5 36
2018-05-05 18:00:00 24 8 Noroeste 15 Noroeste 0 968.8 -0.8 36
2018-05-05 17:00:00 23.8 8 Noroeste 22 Noroeste 0 968.9 -1 36
2018-05-05 16:00:00 23.1 10 Norte 20 Noroeste 0 969.3 -1.2 40
2018-05-05 15:00:00 22.4 10 Noroeste 20 Noroeste 0 969.6 -1 44
2018-05-05 14:00:00 21.8 9 Norte 18 Norte 0 969.9 -0.7 40
2018-05-05 13:00:00 20.3 6 Norte 11 Noroeste 0 970.5 0.2 51
2018-05-05 12:00:00 18.3 5 Norte 11 Norte 0 970.6 0.4 57
2018-05-05 11:00:00 16.6 3 Nordeste 8 Norte 0 970.6 0.8 61
2018-05-05 10:00:00 14.5 4 Norte 8 Norte 0 970.3 0.8 66
2018-05-05 09:00:00 12.5 2 Norte 5 Norte 0 970.2 1.2 75
2018-05-05 08:00:00 8.9 2 Sudoeste 13 Sudoeste 0 969.8 0.8 86
2018-05-05 07:00:00 8.3 3 Oeste 18 Nordeste 0 969.5 0.4 89
2018-05-05 06:00:00 9.3 3 Oeste 7 Oeste 0 969 -0.2 82
2018-05-05 05:00:00 9.6 5 Sudoeste 8 Sudoeste 0 969 -0.4 80
2018-05-05 04:00:00 9.8 4 Sudoeste 8 Sudoeste 0 969.1 0 81
2018-05-05 03:00:00 11.2 5 Sudoeste 9 Oeste 0 969.2 0 72
2018-05-05 02:00:00 12.6 6 Sudoeste 10 Oeste 0 969.4 0.5 65
2018-05-05 01:00:00 12.4 6 Sudoeste 9 Sudoeste 0 969.1 0.5 67
2018-05-05 00:00:00 12.5 6 Sudoeste 8 Sudoeste 0 969.2 0.9 67
2018-05-04 23:00:00 12.7 5 Sudoeste 8 Sudoeste 0 968.9 1.1 69
2018-05-04 22:00:00 14.4 4 Sudoeste 8 Norte 0 968.6 0.9 63
2018-05-04 21:00:00 18.1 6 Norte 17 Nordeste 0 968.3 0.5 49
2018-05-04 20:00:00 19.5 10 Nordeste 20 Nordeste 0 967.8 0 41
2018-05-04 19:00:00 20.2 8 Nordeste 24 Nordeste 0 967.7 -0.3 37
2018-05-04 18:00:00 20.1 10 Este 27 Nordeste 0 967.8 -0.5 37
2018-05-04 17:00:00 19.8 12 Este 28 Este 0 967.8 -0.7 37
2018-05-04 16:00:00 19.4 14 Este 24 Nordeste 0 968 -0.7 38
2018-05-04 15:00:00 18.1 18 Norte 30 Norte 0 968.3 -0.5 37
2018-05-04 14:00:00 17.7 12 Nordeste 28 Nordeste 0 968.5 -0.4 41
2018-05-04 13:00:00 16.4 15 Nordeste 27 Norte 0 968.7 -0.4 45
2018-05-04 12:00:00 15.4 15 Nordeste 28 Norte 0 968.8 -0.1 49
2018-05-04 11:00:00 13.8 11 Nordeste 19 Norte 0 968.9 0.5 54
2018-05-04 10:00:00 11.3 6 Norte 14 Noroeste 0 969.1 1 62
2018-05-04 09:00:00 9 7 Noroeste 12 Norte 0 968.9 1 67
2018-05-04 08:00:00 6.8 4 Oeste 9 Noroeste 0 968.4 0.5 72
2018-05-04 07:00:00 6.6 5 Oeste 8 Noroeste 0 968.1 0 75
2018-05-04 06:00:00 7.4 5 Oeste 9 Oeste 0 967.9 -0.2 73
2018-05-04 05:00:00 7.8 5 Oeste 8 Oeste 0 967.9 -0.5 72
2018-05-04 04:00:00 8.7 6 Oeste 9 Oeste 0 968.1 -0.4 67
2018-05-04 03:00:00 8.6 5 Sudoeste 9 Sudoeste 0 968.1 -0.3 66
2018-05-04 02:00:00 10 7 Sudoeste 10 Sudoeste 0 968.4 0.2 61
2018-05-04 01:00:00 11.1 3 Noroeste 8 Noroeste 0 968.5 0.8 57
2018-05-04 00:00:00 12.1 3 Oeste 9 Oeste 0 968.4 0.8 58
2018-05-03 23:00:00 13.6 6 Noroeste 17 Norte 0 968.2 1 48
2018-05-03 22:00:00 15 12 Noroeste 22 Norte 0 967.7 0.3 46
2018-05-03 21:00:00 17.1 9 Norte 27 Norte 0 967.6 0.3 44
2018-05-03 20:00:00 19.5 16 Norte 33 Norte 0 967.2 -0.7 42
2018-05-03 19:00:00 20.3 19 Norte 32 Noroeste 0 967.4 -1.2 39
2018-05-03 18:00:00 20.7 17 Noroeste 31 Noroeste 0 967.3 -1.6 42
2018-05-03 17:00:00 20.5 14 Norte 28 Norte 0 967.9 -1.6 42
2018-05-03 16:00:00 19.1 16 Norte 31 Norte 0 968.6 -1.4 48
2018-05-03 15:00:00 18.8 12 Noroeste 26 Norte 0 968.9 -1.4 51
2018-05-03 14:00:00 19.3 12 Noroeste 29 Norte 0 969.5 -0.9 51
2018-05-03 13:00:00 18.8 15 Noroeste 27 Norte 0 970 -0.5 56
2018-05-03 12:00:00 17.6 14 Norte 26 Norte 0 970.3 -0.3 60
2018-05-03 11:00:00 16.1 12 Norte 25 Noroeste 0 970.4 -0.1 65
2018-05-03 10:00:00 13.9 11 Noroeste 19 Noroeste 0 970.5 0 74
2018-05-03 09:00:00 12 8 Noroeste 17 Noroeste 0 970.6 0.4 78
2018-05-03 08:00:00 10.2 5 Oeste 10 Noroeste 0 970.5 -0.1 83
2018-05-03 07:00:00 10 5 Noroeste 13 Noroeste 0 970.5 -0.5 83
2018-05-03 06:00:00 10.6 8 Noroeste 15 Noroeste 0 970.2 -1.2 81
2018-05-03 05:00:00 11.1 6 Oeste 20 Noroeste 0 970.6 -1 78
2018-05-03 04:00:00 11.9 7 Noroeste 18 Noroeste 0 971 -0.7 76
2018-05-03 03:00:00 11.6 8 Oeste 25 Sudoeste 0 971.4 -0.3 77
2018-05-03 02:00:00 11.2 17 Oeste 29 Oeste 0 971.6 0.1 80
2018-05-03 01:00:00 11.6 16 Oeste 31 Oeste 0 971.7 0.6 77
2018-05-03 00:00:00 12.4 18 Sudoeste 26 Sudoeste 0 971.7 0.9 69
2018-05-02 23:00:00 13.4 11 Oeste 19 Oeste 0 971.5 0.9 64
2018-05-02 22:00:00 13.1 9 Oeste 14 Oeste 0 971.1 0.6 65
2018-05-02 21:00:00 14.4 10 Oeste 23 Oeste 0 970.8 0.2 59
2018-05-02 20:00:00 16.2 10 Oeste 19 Oeste 0 970.6 0.1 51
2018-05-02 19:00:00 16.7 13 Oeste 23 Oeste 0 970.5 -0.4 51
2018-05-02 18:00:00 17.3 14 Oeste 24 Oeste 0 970.6 -0.4 46
2018-05-02 17:00:00 16.6 14 Oeste 26 Noroeste 0 970.5 -0.6 47
2018-05-02 16:00:00 15.8 10 Oeste 25 Oeste 0 970.9 -0.5 49
2018-05-02 15:00:00 15.7 10 Noroeste 23 Oeste 0 971 -0.6 42
2018-05-02 14:00:00 15 12 Oeste 25 Noroeste 0 971.1 -0.3 46
2018-05-02 13:00:00 14.2 12 Noroeste 25 Oeste 0 971.4 0.3 52
2018-05-02 12:00:00 12.7 11 Oeste 24 Sudoeste 0 971.6 0.7 60
2018-05-02 11:00:00 11.5 8 Oeste 21 Oeste 0 971.4 1.1 62
2018-05-02 10:00:00 9.4 9 Oeste 20 Sudoeste 0 971.1 1 71
2018-05-02 09:00:00 8.4 16 Sudoeste 24 Sudoeste 0 970.9 0.7 72
2018-05-02 08:00:00 7.5 16 Sudoeste 26 Sudoeste 0 970.3 0.1 73
2018-05-02 07:00:00 7.2 15 Sudoeste 26 Sudoeste 0 970.1 -0.2 67
2018-05-02 06:00:00 6.7 8 Oeste 20 Sudoeste 0 970.2 -0.2 72
2018-05-02 05:00:00 7.4 13 Oeste 21 Oeste 0 970.2 -0.2 70
2018-05-02 04:00:00 7.4 9 Oeste 16 Sudoeste 0 970.3 0.1 70
2018-05-02 03:00:00 8 9 Noroeste 17 Oeste 0 970.4 0.3 68
2018-05-02 02:00:00 8.7 14 Sudoeste 29 Oeste 0 970.4 0.6 66
2018-05-02 01:00:00 9.9 15 Oeste 29 Oeste 0 970.2 1 62
2018-05-02 00:00:00 11.1 14 Oeste 30 Oeste 0 970.1 1.2 57
2018-05-01 23:00:00 11.8 11 Oeste 19 Oeste 0 969.8 0.9 54
2018-05-01 22:00:00 10.8 10 Sudoeste 13 Sudoeste 0 969.2 0.2 57
2018-05-01 21:00:00 15.2 4 Sudoeste 14 Norte 0 968.9 -0.2 44
2018-05-01 20:00:00 16.8 3 Oeste 13 Norte 0 968.9 -0.4 33
2018-05-01 19:00:00 16.6 6 Sudeste 17 Este 0 969 -0.7 40
2018-05-01 18:00:00 16 10 Este 27 Norte 0 969.1 -0.8 43
2018-05-01 17:00:00 16.2 6 Norte 22 Nordeste 0 969.3 -0.7 41
2018-05-01 16:00:00 16.4 10 Norte 24 Noroeste 0 969.7 -0.6 42
2018-05-01 15:00:00 15.9 10 Norte 23 Nordeste 0 969.9 -0.5 43
2018-05-01 14:00:00 15.5 9 Norte 25 Norte 0 970 -0.2 52
2018-05-01 13:00:00 13.6 12 Norte 22 Nordeste 0 970.3 0.4 54
2018-05-01 12:00:00 13.5 10 Nordeste 22 Nordeste 0 970.4 0.8 61
2018-05-01 11:00:00 11.7 10 Norte 19 Norte 0 970.2 0.9 65
2018-05-01 10:00:00 9.8 12 Noroeste 19 Norte 0 969.9 1 74
2018-05-01 09:00:00 7.8 6 Noroeste 10 Noroeste 0 969.6 0.5 84
2018-05-01 08:00:00 6.6 5 Oeste 8 Sudoeste 0 969.3 0.1 85
2018-05-01 07:00:00 6.6 5 Sudoeste 10 Oeste 0 968.9 -0.3 84
2018-05-01 06:00:00 7.7 4 Oeste 7 Oeste 0 969.1 -0.6 82
2018-05-01 05:00:00 8 4 Noroeste 11 Oeste 0 969.2 -0.9 78
2018-05-01 04:00:00 7.7 6 Oeste 8 Oeste 0 969.2 -1.1 79
2018-05-01 03:00:00 7.9 5 Oeste 8 Sudoeste 0 969.7 -0.7 80
2018-05-01 02:00:00 8.2 4 Sudoeste 9 Noroeste 0 970.1 0 80
2018-05-01 01:00:00 9.4 5 Noroeste 16 Noroeste 0 970.3 0.6 78
2018-05-01 00:00:00 9.9 5 Oeste 21 Oeste 0 970.4 1.4 74
2018-04-30 23:00:00 10.7 9 Oeste 20 Oeste 0 970.1 1.4 70
2018-04-30 22:00:00 11.6 8 Oeste 26 Oeste 0 969.7 1.1 63
2018-04-30 21:00:00 12.3 8 Oeste 23 Noroeste 0 969 0.3 58
2018-04-30 20:00:00 13.4 10 Oeste 20 Oeste 0 968.7 -0.2 49
2018-04-30 19:00:00 15 13 Noroeste 22 Oeste 0 968.6 -0.7 43
2018-04-30 18:00:00 14.2 12 Noroeste 27 Norte 0 968.7 -0.9 41
2018-04-30 17:00:00 14 15 Noroeste 27 Oeste 0 968.9 -1.1 49
2018-04-30 16:00:00 13.4 17 Noroeste 27 Noroeste 0 969.3 -1 48
2018-04-30 15:00:00 12.8 15 Noroeste 32 Noroeste 0 969.6 -0.7 54
2018-04-30 14:00:00 12.2 15 Oeste 28 Noroeste 0 970 -0.3 55
2018-04-30 13:00:00 12.3 12 Oeste 26 Oeste 0 970.3 0.3 56
2018-04-30 12:00:00 11 8 Noroeste 19 Sudoeste 0 970.3 0.8 68
2018-04-30 11:00:00 9.8 10 Sudoeste 21 Oeste 0 970.3 0.8 70
2018-04-30 10:00:00 8.2 9 Sudoeste 20 Sur 0 970 0.9 82
2018-04-30 09:00:00 6.8 11 Sudoeste 20 Sudoeste 0 969.5 0.2 87
2018-04-30 08:00:00 6.4 12 Sudoeste 17 Sudoeste 0 969.5 0 88
2018-04-30 07:00:00 6.3 11 Sudoeste 18 Sudoeste 0 969.1 -0.6 83
2018-04-30 06:00:00 6.1 10 Sudoeste 19 Sudoeste 0 969.3 -0.7 82
2018-04-30 05:00:00 5.7 10 Sudoeste 16 Sudoeste 0 969.5 -1.1 83
2018-04-30 04:00:00 6.1 11 Sudoeste 17 Oeste 0 969.7 -0.8 80
2018-04-30 03:00:00 6.5 10 Sudoeste 19 Sudoeste 0 970 -0.5 79
2018-04-30 02:00:00 7.1 13 Sudoeste 21 Sudoeste 0 970.6 0.2 75
2018-04-30 01:00:00 6.9 12 Sudoeste 18 Sudoeste 0 970.5 0.8 77
2018-04-30 00:00:00 7.5 9 Oeste 21 Oeste 0 970.5 1.7 74
2018-04-29 23:00:00 7.8 10 Oeste 26 Oeste 0 970.4 2.2 72
2018-04-29 22:00:00 9.3 16 Oeste 28 Oeste 0 969.7 1.7 64
2018-04-29 21:00:00 10.3 14 Noroeste 26 Noroeste 0 968.8 1.4 66
2018-04-29 20:00:00 11.3 16 Noroeste 32 Noroeste 0 968.2 0.9 63
2018-04-29 19:00:00 12.4 23 Oeste 55 Noroeste 0 968 -0.2 55
2018-04-29 18:00:00 13.8 23 Oeste 46 Oeste 0 967.4 -0.1 46
2018-04-29 17:00:00 12.8 22 Sudoeste 46 Sudoeste 0 967.3 -0.6 65
2018-04-29 16:00:00 10.4 25 Sudoeste 42 Noroeste 0 968.2 0.5 71
2018-04-29 15:00:00 12.4 20 Sudoeste 41 Sudoeste 0 967.5 0 59
2018-04-29 14:00:00 11.3 23 Sudoeste 48 Sudoeste 0 967.9 1.2 70
2018-04-29 13:00:00 12 22 Oeste 48 Oeste 0 967.7 1.4 54
2018-04-29 12:00:00 10.8 21 Oeste 43 Sudoeste 0 967.5 2.1 67
2018-04-29 11:00:00 9.8 20 Sudoeste 35 Sudoeste 0 966.7 2.1 78
2018-04-29 10:00:00 8.6 22 Oeste 42 Sudoeste 0 966.3 2.4 78
2018-04-29 09:00:00 7.2 23 Sudoeste 35 Sudoeste 0 965.4 1.7 88
2018-04-29 08:00:00 6.4 21 Sudoeste 41 Sudoeste 0 964.6 1.2 92
2018-04-29 07:00:00 6.4 21 Sudoeste 36 Oeste 0 963.9 0.8 90
2018-04-29 06:00:00 6.8 17 Oeste 34 Oeste 0 963.7 0.3 90
2018-04-29 05:00:00 6.7 17 Oeste 35 Oeste 0 963.4 -0.4 89
2018-04-29 04:00:00 6.9 17 Oeste 35 Oeste 0.4 963.1 -0.8 89
2018-04-29 03:00:00 7.1 11 Sudoeste 21 Oeste 0.4 963.4 -0.7 91
2018-04-29 02:00:00 7.1 8 Oeste 16 Sudoeste 1.4 963.8 -0.1 92
2018-04-29 01:00:00 7.5 9 Oeste 19 Oeste 0.4 963.9 -0.2 89
2018-04-29 00:00:00 8.1 11 Oeste 25 Noroeste 0.2 964.1 0.9 86
2018-04-28 23:00:00 8.5 11 Oeste 24 Noroeste 0.4 963.9 0.5 87
2018-04-28 22:00:00 8.7 8 Oeste 34 Oeste 1.4 964.1 0.3 88
2018-04-28 21:00:00 12.2 11 Sur 26 Sur 0 963.2 -1.1 54
2018-04-28 20:00:00 13.3 13 Sur 29 Sur 0 963.4 -1.5 52
2018-04-28 19:00:00 14.7 13 Sudoeste 27 Sudoeste 0 963.8 -1.8 42
2018-04-28 18:00:00 14.5 14 Sudoeste 24 Sudoeste 0 964.3 -1.6 44
2018-04-28 17:00:00 14.4 18 Sudoeste 30 Sudoeste 0 964.9 -1.4 47
2018-04-28 16:00:00 13.9 16 Oeste 27 Oeste 0 965.6 -1.2 47
2018-04-28 15:00:00 14.3 14 Oeste 27 Oeste 0 965.9 -1 44
2018-04-28 14:00:00 13.5 13 Oeste 24 Oeste 0 966.3 -0.4 54
2018-04-28 13:00:00 12.5 13 Oeste 23 Oeste 0 966.8 0.2 57
2018-04-28 12:00:00 11.9 10 Oeste 29 Oeste 0 966.9 0.4 66
2018-04-28 11:00:00 9.5 14 Oeste 25 Sudoeste 0 966.7 0.6 74
2018-04-28 10:00:00 8.3 13 Sudoeste 23 Sudoeste 0 966.6 0.3 82
2018-04-28 09:00:00 7.1 17 Sudoeste 31 Sudoeste 0 966.5 0.1 88
2018-04-28 08:00:00 6.2 22 Sudoeste 30 Sudoeste 0 966.1 -0.5 90
2018-04-28 07:00:00 6.5 11 Sudoeste 25 Sudoeste 0 966.3 -0.5 87
2018-04-28 06:00:00 7.4 11 Sudoeste 26 Sudoeste 0 966.4 -0.9 78
2018-04-28 05:00:00 7.7 8 Sur 15 Sudoeste 0 966.6 -1.1 83
2018-04-28 04:00:00 8.6 9 Sudoeste 18 Oeste 0 966.8 -1.4 79
2018-04-28 03:00:00 9.1 10 Oeste 21 Sudoeste 0 967.3 -1 81
2018-04-28 02:00:00 10.3 11 Oeste 18 Noroeste 0 967.7 -0.7 76
2018-04-28 01:00:00 11.5 10 Oeste 22 Oeste 0 968.2 0.2 72
2018-04-28 00:00:00 12.4 9 Oeste 21 Oeste 0 968.3 1 70
2018-04-27 23:00:00 13.6 11 Oeste 31 Noroeste 0 968.4 1.1 68
2018-04-27 22:00:00 15.3 16 Oeste 30 Oeste 0 968 0.6 68
2018-04-27 21:00:00 17.3 15 Oeste 33 Oeste 0 967.3 -0.3 59
2018-04-27 20:00:00 19.2 22 Oeste 36 Noroeste 0 967.3 -0.7 54
2018-04-27 19:00:00 20.3 14 Oeste 28 Oeste 0 967.4 -1.3 50
2018-04-27 18:00:00 21.2 14 Noroeste 27 Oeste 0 967.6 -1.5 48
2018-04-27 17:00:00 20.9 15 Noroeste 31 Oeste 0 968 -1.5 47
2018-04-27 16:00:00 20.4 17 Oeste 29 Noroeste 0 968.7 -1.3 41
2018-04-27 15:00:00 20.2 9 Oeste 28 Sudoeste 0 969.1 -0.9 43
2018-04-27 14:00:00 19.8 11 Oeste 24 Noroeste 0 969.5 -0.2 46
2018-04-27 13:00:00 18.8 12 Oeste 21 Oeste 0 970 0.3 51
2018-04-27 12:00:00 18 11 Oeste 19 Oeste 0 970 0.7 54
2018-04-27 11:00:00 16.5 11 Noroeste 18 Noroeste 0 969.7 0.7 51
2018-04-27 10:00:00 14.9 13 Noroeste 20 Noroeste 0 969.7 1.1 55
2018-04-27 09:00:00 13.3 12 Oeste 29 Oeste 0 969.3 0.8 57
2018-04-27 08:00:00 11.6 15 Oeste 29 Sudoeste 0 969 0.3 62
2018-04-27 07:00:00 11.7 19 Oeste 33 Oeste 0 968.6 -0.2 61
2018-04-27 06:00:00 12.5 26 Oeste 40 Oeste 0 968.5 -0.9 61
2018-04-27 05:00:00 12.6 18 Oeste 32 Oeste 0 968.7 -0.9 66
2018-04-27 04:00:00 13.5 26 Sudoeste 33 Sudoeste 0 968.8 -0.9 67
2018-04-27 03:00:00 14.9 13 Oeste 30 Sudoeste 0 969.4 -0.4 64
2018-04-27 02:00:00 16.3 21 Sudoeste 30 Oeste 0 969.6 0.1 65
2018-04-27 01:00:00 17.7 17 Sudoeste 30 Sudoeste 0 969.7 0.7 60
2018-04-27 00:00:00 19.3 18 Oeste 33 Oeste 0 969.8 1 65
2018-04-26 23:00:00 20.9 12 Sudoeste 20 Oeste 0 969.5 0.9 65
2018-04-26 22:00:00 22 9 Sudoeste 18 Oeste 0 969 -0.1 54
2018-04-26 21:00:00 23.8 5 Sudoeste 22 Oeste 0 968.8 -0.4 48
2018-04-26 20:00:00 25.5 10 Sur 20 Sur 0 968.6 -1 40
2018-04-26 19:00:00 26.2 8 Sur 23 Sur 0 969.1 -1.1 45
2018-04-26 18:00:00 26.6 11 Sur 21 Sudoeste 0 969.2 -1.3 41
2018-04-26 17:00:00 26.5 7 Sudoeste 18 Sudoeste 0 969.6 -1.3 41
2018-04-26 16:00:00 26.1 9 Sudoeste 21 Sudoeste 0 970.2 -1.2 43
2018-04-26 15:00:00 26.2 8 Sudeste 24 Sudeste 0 970.5 -0.9 41
2018-04-26 14:00:00 25 13 Sudeste 23 Este 0 970.9 -0.4 46
2018-04-26 13:00:00 23.7 14 Este 28 Sudeste 0 971.4 0.2 49
2018-04-26 12:00:00 23.1 14 Este 22 Este 0 971.4 0.5 52
2018-04-26 11:00:00 20.1 4 Norte 8 Nordeste 0 971.3 0.9 62
2018-04-26 10:00:00 18.8 3 Nordeste 4 Sudeste 0 971.2 1.2 64
2018-04-26 09:00:00 15.4 3 Noroeste 6 Noroeste 0 970.9 0.7 79
2018-04-26 08:00:00 13.8 0 Calma 5 Este 0 970.4 0.5 80
2018-04-26 07:00:00 14.2 0 Calma 14 Sudeste 0 970 0.1 78
2018-04-26 06:00:00 15.4 11 Sudeste 16 Nordeste 0 970.2 -0.1 71
2018-04-26 05:00:00 16.6 6 Noroeste 21 Sur 0 969.9 -0.7 73
2018-04-26 04:00:00 19.3 20 Sur 33 Sur 0 969.9 -0.2 56
2018-04-26 03:00:00 19.5 26 Sur 33 Sur 0 970.3 0.4 56
2018-04-26 02:00:00 18.4 7 Sur 20 Este 0 970.6 0.9 64
2018-04-26 01:00:00 19.7 7 Oeste 12 Noroeste 0 970.1 1 66
2018-04-26 00:00:00 20.6 4 Noroeste 10 Noroeste 0 969.9 1.4 63
2018-04-25 23:00:00 21.8 4 Noroeste 17 Noroeste 0 969.7 1.5 58
2018-04-25 22:00:00 23.8 9 Noroeste 17 Noroeste 0 969.1 0.8 49
2018-04-25 21:00:00 24.4 7 Oeste 15 Oeste 0 968.5 0.1 50
2018-04-25 20:00:00 26.5 9 Noroeste 23 Noroeste 0 968.2 -0.8 46
2018-04-25 19:00:00 27.5 11 Noroeste 18 Norte 0 968.3 -1.3 42
2018-04-25 18:00:00 27.7 11 Noroeste 20 Norte 0 968.4 -1.7 35
2018-04-25 17:00:00 27.1 14 Noroeste 24 Norte 0 969 -1.6 35
2018-04-25 16:00:00 26.7 8 Norte 18 Norte 0 969.6 -1.6 45
2018-04-25 15:00:00 25.3 12 Nordeste 20 Nordeste 0 970.1 -1.5 44
2018-04-25 14:00:00 24.3 13 Norte 20 Norte 0 970.6 -0.9 45
2018-04-25 13:00:00 23.2 10 Nordeste 19 Norte 0 971.2 -0.2 47
2018-04-25 12:00:00 21.1 6 Norte 14 Nordeste 0 971.6 0.4 57
2018-04-25 11:00:00 20.1 7 Este 10 Este 0 971.5 0.7 59
2018-04-25 10:00:00 18.4 4 Nordeste 10 Este 0 971.4 1.3 62
2018-04-25 09:00:00 15.2 2 Sudeste 6 Sur 0 971.2 1.1 80
2018-04-25 08:00:00 12.3 4 Oeste 8 Sudeste 0 970.8 1.5 85
2018-04-25 07:00:00 13.3 6 Sur 8 Sur 0 970.1 0.8 81
2018-04-25 06:00:00 15.1 8 Este 12 Sudeste 0 970.1 0.6 71
2018-04-25 05:00:00 14.9 7 Sudeste 10 Sudeste 0 969.3 -0.4 74
2018-04-25 04:00:00 14.6 0 Calma 9 Sudeste 0 969.3 -0.5 77
2018-04-25 03:00:00 16.2 6 Sudeste 8 Sudeste 0 969.5 -0.2 66
2018-04-25 02:00:00 15.8 0 Calma 6 Sur 0 969.7 -0.1 73
2018-04-25 01:00:00 15.7 4 Sur 6 Sudoeste 0 969.8 0.6 74
2018-04-25 00:00:00 17 3 Sur 13 Noroeste 0 969.7 1.1 65
2018-04-24 23:00:00 18.2 9 Sudeste 13 Sudeste 0 969.8 1.4 60
2018-04-24 22:00:00 18.4 4 Sur 7 Sur 0 969.2 0.8 71
2018-04-24 21:00:00 21.4 2 Nordeste 13 Sudeste 0 968.6 0.3 56
2018-04-24 20:00:00 23 10 Este 24 Este 0 968.4 -0.3 55
2018-04-24 19:00:00 24.9 13 Nordeste 30 Nordeste 0 968.4 -0.8 41
2018-04-24 18:00:00 25.6 9 Nordeste 17 Nordeste 0 968.3 -1.3 41
2018-04-24 17:00:00 25 10 Este 20 Nordeste 0 968.7 -1 41
2018-04-24 16:00:00 24.3 9 Este 19 Este 0 969.2 -0.8 39
2018-04-24 15:00:00 23.4 14 Este 23 Este 0 969.6 -0.4 41
2018-04-24 14:00:00 22.6 14 Nordeste 23 Nordeste 0 969.7 -0.2 42
2018-04-24 13:00:00 22.1 12 Nordeste 24 Nordeste 0 970 -0.1 44
2018-04-24 12:00:00 20.1 14 Nordeste 23 Nordeste 0 970 0.1 48
2018-04-24 11:00:00 19.1 6 Nordeste 13 Nordeste 0 969.9 0.4 50
2018-04-24 10:00:00 17.8 6 Este 21 Este 0 970.1 1.3 47
2018-04-24 09:00:00 16.2 5 Sudeste 32 Este 0 969.9 1 50
2018-04-24 08:00:00 16.2 14 Este 31 Este 0 969.5 0.3 53
2018-04-24 07:00:00 17.2 10 Este 17 Nordeste 0 968.8 -0.2 47
2018-04-24 06:00:00 17.1 4 Este 17 Nordeste 0 968.9 -0.6 58
2018-04-24 05:00:00 17.8 9 Nordeste 18 Nordeste 0 969.2 0 62
2018-04-24 04:00:00 16.4 4 Oeste 7 Sudoeste 0 969 -0.3 81
2018-04-24 03:00:00 16.9 4 Sur 8 Sur 0 969.5 0 77
2018-04-24 02:00:00 17.1 4 Sur 7 Sudoeste 0 969.2 0.1 77
2018-04-24 01:00:00 17.6 4 Sur 6 Sudeste 0 969.3 0.8 77
2018-04-24 00:00:00 19 3 Sudeste 8 Este 0 969.5 1.2 71